sensor_id;sensor_type;location;lat;lon;timestamp;pressure;altitude;pressure_sealevel;temperature;humidity
48027;BME280;50714;49.208;5.364;2023-04-27T00:05:16;99571.25;;;9.02;67.67
48027;BME280;50714;49.208;5.364;2023-04-27T00:15:16;99571.00;;;8.97;67.74
48027;BME280;50714;49.208;5.364;2023-04-27T00:25:17;99557.97;;;8.79;69.26
48027;BME280;50714;49.208;5.364;2023-04-27T00:35:17;99569.28;;;8.74;69.43
48027;BME280;50714;49.208;5.364;2023-04-27T00:45:17;99561.53;;;8.65;69.81
48027;BME280;50714;49.208;5.364;2023-04-27T00:55:18;99554.22;;;8.59;70.48
48027;BME280;50714;49.208;5.364;2023-04-27T01:05:18;99544.47;;;8.58;70.72
48027;BME280;50714;49.208;5.364;2023-04-27T01:15:19;99548.00;;;8.58;71.70
48027;BME280;50714;49.208;5.364;2023-04-27T01:25:19;99556.72;;;8.60;72.31
48027;BME280;50714;49.208;5.364;2023-04-27T01:35:20;99553.84;;;8.62;71.99
48027;BME280;50714;49.208;5.364;2023-04-27T01:45:20;99544.88;;;8.76;71.09
48027;BME280;50714;49.208;5.364;2023-04-27T01:55:21;99544.31;;;8.80;70.59
48027;BME280;50714;49.208;5.364;2023-04-27T02:05:24;99554.53;;;8.85;70.44
48027;BME280;50714;49.208;5.364;2023-04-27T02:15:25;99554.91;;;8.82;69.96
48027;BME280;50714;49.208;5.364;2023-04-27T02:25:25;99561.22;;;8.74;69.48
48027;BME280;50714;49.208;5.364;2023-04-27T02:35:26;99566.19;;;8.71;68.45
48027;BME280;50714;49.208;5.364;2023-04-27T02:45:26;99562.84;;;8.69;68.17
48027;BME280;50714;49.208;5.364;2023-04-27T02:55:27;99551.81;;;8.64;67.95
48027;BME280;50714;49.208;5.364;2023-04-27T03:05:30;99550.78;;;8.65;67.58
48027;BME280;50714;49.208;5.364;2023-04-27T03:15:30;99546.25;;;8.65;68.41
48027;BME280;50714;49.208;5.364;2023-04-27T03:25:31;99539.00;;;8.66;67.32
48027;BME280;50714;49.208;5.364;2023-04-27T03:35:31;99535.56;;;8.72;66.98
48027;BME280;50714;49.208;5.364;2023-04-27T03:45:31;99545.78;;;8.62;67.33
48027;BME280;50714;49.208;5.364;2023-04-27T03:55:32;99537.28;;;8.43;67.67
48027;BME280;50714;49.208;5.364;2023-04-27T04:05:32;99540.53;;;8.39;66.97
48027;BME280;50714;49.208;5.364;2023-04-27T04:15:33;99547.13;;;8.36;66.52
48027;BME280;50714;49.208;5.364;2023-04-27T04:25:33;99561.59;;;8.35;66.77
48027;BME280;50714;49.208;5.364;2023-04-27T04:35:36;99576.88;;;8.35;65.04
48027;BME280;50714;49.208;5.364;2023-04-27T04:45:37;99582.78;;;8.30;64.35
48027;BME280;50714;49.208;5.364;2023-04-27T04:55:37;99578.75;;;8.34;64.71
48027;BME280;50714;49.208;5.364;2023-04-27T05:05:37;99583.94;;;8.36;64.44
48027;BME280;50714;49.208;5.364;2023-04-27T05:15:38;99593.97;;;8.42;64.30
48027;BME280;50714;49.208;5.364;2023-04-27T05:25:38;99587.44;;;8.51;64.17
48027;BME280;50714;49.208;5.364;2023-04-27T05:35:41;99595.88;;;8.63;64.15
48027;BME280;50714;49.208;5.364;2023-04-27T05:45:42;99606.16;;;8.74;64.44
48027;BME280;50714;49.208;5.364;2023-04-27T05:55:42;99619.56;;;8.88;66.69
48027;BME280;50714;49.208;5.364;2023-04-27T06:05:42;99612.22;;;8.97;65.93
48027;BME280;50714;49.208;5.364;2023-04-27T06:15:43;99616.00;;;9.03;65.23
48027;BME280;50714;49.208;5.364;2023-04-27T06:25:43;99623.59;;;9.14;66.02
48027;BME280;50714;49.208;5.364;2023-04-27T06:35:44;99620.06;;;9.35;67.20
48027;BME280;50714;49.208;5.364;2023-04-27T06:45:44;99630.72;;;9.43;66.55
48027;BME280;50714;49.208;5.364;2023-04-27T06:55:45;99618.84;;;9.58;66.87
48027;BME280;50714;49.208;5.364;2023-04-27T07:05:45;99613.59;;;9.78;65.87
48027;BME280;50714;49.208;5.364;2023-04-27T07:15:45;99619.56;;;10.23;66.04
48027;BME280;50714;49.208;5.364;2023-04-27T07:25:46;99626.22;;;10.68;65.13
48027;BME280;50714;49.208;5.364;2023-04-27T07:35:46;99615.09;;;10.84;64.11
48027;BME280;50714;49.208;5.364;2023-04-27T07:45:49;99599.78;;;11.11;62.97
48027;BME280;50714;49.208;5.364;2023-04-27T07:55:49;99595.91;;;11.53;62.32
48027;BME280;50714;49.208;5.364;2023-04-27T08:05:49;99589.94;;;12.55;61.33
48027;BME280;50714;49.208;5.364;2023-04-27T08:15:50;99598.53;;;13.35;59.26
48027;BME280;50714;49.208;5.364;2023-04-27T08:25:51;99584.22;;;14.03;57.85
48027;BME280;50714;49.208;5.364;2023-04-27T08:35:53;99582.56;;;14.63;54.60
48027;BME280;50714;49.208;5.364;2023-04-27T08:45:53;99577.03;;;14.88;53.24
48027;BME280;50714;49.208;5.364;2023-04-27T08:55:54;99592.75;;;14.97;52.51
48027;BME280;50714;49.208;5.364;2023-04-27T09:05:56;99603.34;;;16.47;51.57
48027;BME280;50714;49.208;5.364;2023-04-27T09:15:57;99596.69;;;17.35;49.65
48027;BME280;50714;49.208;5.364;2023-04-27T09:26:02;99590.31;;;19.34;47.34
48027;BME280;50714;49.208;5.364;2023-04-27T09:36:04;99589.78;;;22.98;44.99
48027;BME280;50714;49.208;5.364;2023-04-27T09:46:05;99585.34;;;25.95;40.44
48027;BME280;50714;49.208;5.364;2023-04-27T10:06:56;99562.50;;;26.63;32.07
48027;BME280;50714;49.208;5.364;2023-04-27T10:16:58;99559.09;;;26.94;34.54
48027;BME280;50714;49.208;5.364;2023-04-27T10:27:06;99553.78;;;27.11;31.40
48027;BME280;50714;49.208;5.364;2023-04-27T10:37:09;99541.28;;;26.31;35.11
48027;BME280;50714;49.208;5.364;2023-04-27T10:47:14;99543.56;;;26.10;32.58
48027;BME280;50714;49.208;5.364;2023-04-27T10:57:15;99530.16;;;26.17;34.73
48027;BME280;50714;49.208;5.364;2023-04-27T11:07:23;99518.41;;;27.30;31.24
48027;BME280;50714;49.208;5.364;2023-04-27T11:17:28;99509.69;;;28.43;30.43
48027;BME280;50714;49.208;5.364;2023-04-27T11:27:39;99486.44;;;30.38;28.04
48027;BME280;50714;49.208;5.364;2023-04-27T11:37:40;99482.59;;;31.10;29.81
48027;BME280;50714;49.208;5.364;2023-04-27T11:47:45;99488.50;;;31.08;26.69
48027;BME280;50714;49.208;5.364;2023-04-27T11:57:46;99477.50;;;30.53;28.79
48027;BME280;50714;49.208;5.364;2023-04-27T12:07:47;99475.19;;;28.36;30.59
48027;BME280;50714;49.208;5.364;2023-04-27T12:17:47;99465.94;;;26.62;30.73
48027;BME280;50714;49.208;5.364;2023-04-27T12:27:48;99462.31;;;25.09;32.36
48027;BME280;50714;49.208;5.364;2023-04-27T12:37:48;99460.56;;;23.85;33.05
48027;BME280;50714;49.208;5.364;2023-04-27T12:47:49;99467.00;;;22.48;34.69
48027;BME280;50714;49.208;5.364;2023-04-27T12:57:50;99453.59;;;22.36;35.81
48027;BME280;50714;49.208;5.364;2023-04-27T13:07:51;99452.91;;;21.90;36.36
48027;BME280;50714;49.208;5.364;2023-04-27T13:17:51;99437.88;;;21.22;37.33
48027;BME280;50714;49.208;5.364;2023-04-27T13:27:53;99430.97;;;20.99;37.82
48027;BME280;50714;49.208;5.364;2023-04-27T13:37:53;99416.19;;;21.20;38.20
48027;BME280;50714;49.208;5.364;2023-04-27T13:47:54;99395.03;;;21.36;38.33
48027;BME280;50714;49.208;5.364;2023-04-27T13:57:54;99378.28;;;21.32;38.70
48027;BME280;50714;49.208;5.364;2023-04-27T14:07:55;99374.97;;;20.85;39.32
48027;BME280;50714;49.208;5.364;2023-04-27T14:17:55;99388.97;;;20.73;39.78
48027;BME280;50714;49.208;5.364;2023-04-27T14:27:55;99369.25;;;20.76;39.99
48027;BME280;50714;49.208;5.364;2023-04-27T14:37:56;99365.91;;;20.79;40.78
48027;BME280;50714;49.208;5.364;2023-04-27T14:48:00;99350.44;;;20.17;41.62
48027;BME280;50714;49.208;5.364;2023-04-27T14:58:01;99341.56;;;19.90;42.44
48027;BME280;50714;49.208;5.364;2023-04-27T15:08:01;99352.47;;;19.74;43.22
48027;BME280;50714;49.208;5.364;2023-04-27T15:18:02;99351.16;;;19.87;43.52
48027;BME280;50714;49.208;5.364;2023-04-27T15:28:03;99350.28;;;19.77;43.92
48027;BME280;50714;49.208;5.364;2023-04-27T15:38:04;99341.75;;;19.68;43.80
48027;BME280;50714;49.208;5.364;2023-04-27T15:48:04;99345.97;;;19.43;44.33
48027;BME280;50714;49.208;5.364;2023-04-27T15:58:05;99331.19;;;19.45;44.45
48027;BME280;50714;49.208;5.364;2023-04-27T16:08:05;99333.34;;;19.37;44.55
48027;BME280;50714;49.208;5.364;2023-04-27T16:18:05;99301.00;;;19.29;44.88
48027;BME280;50714;49.208;5.364;2023-04-27T16:28:06;99296.91;;;19.27;45.22
48027;BME280;50714;49.208;5.364;2023-04-27T16:38:06;99290.78;;;19.10;46.08
48027;BME280;50714;49.208;5.364;2023-04-27T16:48:07;99277.50;;;18.91;46.33
48027;BME280;50714;49.208;5.364;2023-04-27T16:58:09;99280.13;;;18.76;47.29
48027;BME280;50714;49.208;5.364;2023-04-27T17:08:10;99282.13;;;18.54;47.57
48027;BME280;50714;49.208;5.364;2023-04-27T17:18:10;99273.44;;;18.30;48.04
48027;BME280;50714;49.208;5.364;2023-04-27T17:28:11;99263.84;;;18.00;48.62
48027;BME280;50714;49.208;5.364;2023-04-27T17:38:14;99269.84;;;17.76;49.79
48027;BME280;50714;49.208;5.364;2023-04-27T17:48:14;99265.59;;;17.63;50.40
48027;BME280;50714;49.208;5.364;2023-04-27T17:58:15;99254.19;;;17.44;53.62
48027;BME280;50714;49.208;5.364;2023-04-27T18:08:16;99236.41;;;17.20;54.46
48027;BME280;50714;49.208;5.364;2023-04-27T18:18:16;99232.13;;;17.07;53.75
48027;BME280;50714;49.208;5.364;2023-04-27T18:28:20;99215.91;;;16.95;54.79
48027;BME280;50714;49.208;5.364;2023-04-27T18:38:20;99218.16;;;16.82;55.81
48027;BME280;50714;49.208;5.364;2023-04-27T18:48:21;99211.91;;;16.64;56.85
48027;BME280;50714;49.208;5.364;2023-04-27T18:58:21;99197.38;;;16.42;58.03
48027;BME280;50714;49.208;5.364;2023-04-27T19:08:21;99210.16;;;16.25;56.93
48027;BME280;50714;49.208;5.364;2023-04-27T19:18:21;99215.19;;;16.16;57.29
48027;BME280;50714;49.208;5.364;2023-04-27T19:28:22;99220.13;;;16.02;57.75
48027;BME280;50714;49.208;5.364;2023-04-27T19:38:23;99212.25;;;15.89;58.54
48027;BME280;50714;49.208;5.364;2023-04-27T19:48:24;99221.34;;;15.66;59.62
48027;BME280;50714;49.208;5.364;2023-04-27T19:58:25;99222.91;;;15.62;59.41
48027;BME280;50714;49.208;5.364;2023-04-27T20:08:25;99205.06;;;15.55;60.37
48027;BME280;50714;49.208;5.364;2023-04-27T20:18:25;99199.91;;;15.42;62.53
48027;BME280;50714;49.208;5.364;2023-04-27T20:28:30;99191.22;;;15.28;62.92
48027;BME280;50714;49.208;5.364;2023-04-27T20:38:31;99198.78;;;15.14;63.99
48027;BME280;50714;49.208;5.364;2023-04-27T20:48:32;99189.72;;;15.09;64.93
48027;BME280;50714;49.208;5.364;2023-04-27T20:58:32;99179.69;;;14.97;65.29
48027;BME280;50714;49.208;5.364;2023-04-27T21:08:33;99170.75;;;14.85;66.70
48027;BME280;50714;49.208;5.364;2023-04-27T21:18:33;99171.94;;;14.78;68.04
48027;BME280;50714;49.208;5.364;2023-04-27T21:28:34;99175.13;;;14.75;69.18
48027;BME280;50714;49.208;5.364;2023-04-27T21:38:34;99158.47;;;14.71;68.92
48027;BME280;50714;49.208;5.364;2023-04-27T21:48:35;99170.78;;;14.62;70.58
48027;BME280;50714;49.208;5.364;2023-04-27T21:58:35;99159.69;;;14.52;72.16
48027;BME280;50714;49.208;5.364;2023-04-27T22:08:36;99161.22;;;14.48;72.83
48027;BME280;50714;49.208;5.364;2023-04-27T22:18:36;99172.88;;;14.37;73.74
48027;BME280;50714;49.208;5.364;2023-04-27T22:28:36;99165.44;;;14.32;73.93
48027;BME280;50714;49.208;5.364;2023-04-27T22:38:37;99138.53;;;14.30;73.90
48027;BME280;50714;49.208;5.364;2023-04-27T22:48:37;99129.91;;;14.33;74.99
48027;BME280;50714;49.208;5.364;2023-04-27T22:58:37;99114.94;;;14.31;75.79
48027;BME280;50714;49.208;5.364;2023-04-27T23:08:37;99115.41;;;14.28;76.66
48027;BME280;50714;49.208;5.364;2023-04-27T23:18:40;99126.72;;;14.25;76.63
48027;BME280;50714;49.208;5.364;2023-04-27T23:28:41;99129.19;;;14.26;77.51
48027;BME280;50714;49.208;5.364;2023-04-27T23:38:42;99142.66;;;14.21;77.85
48027;BME280;50714;49.208;5.364;2023-04-27T23:48:42;99123.66;;;14.10;79.02
48027;BME280;50714;49.208;5.364;2023-04-27T23:58:43;99128.63;;;14.13;78.64
